sensor_id;sensor_type;location;lat;lon;timestamp;P1;durP1;ratioP1;P2;durP2;ratioP2
15312;SDS011;7757;52.626;4.746;2022-07-01T00:01:27;1.35;;;0.40;;
15312;SDS011;7757;52.626;4.746;2022-07-01T00:03:53;2.65;;;0.55;;
15312;SDS011;7757;52.626;4.746;2022-07-01T00:06:20;2.95;;;0.65;;
15312;SDS011;7757;52.626;4.746;2022-07-01T00:08:47;3.05;;;0.55;;
15312;SDS011;7757;52.626;4.746;2022-07-01T00:11:15;2.78;;;0.98;;
15312;SDS011;7757;52.626;4.746;2022-07-01T00:13:41;2.05;;;0.70;;
15312;SDS011;7757;52.626;4.746;2022-07-01T00:16:08;3.83;;;0.77;;
15312;SDS011;7757;52.626;4.746;2022-07-01T00:18:34;1.02;;;0.47;;
15312;SDS011;7757;52.626;4.746;2022-07-01T00:21:01;8.27;;;0.80;;
15312;SDS011;7757;52.626;4.746;2022-07-01T00:23:28;3.30;;;0.85;;
15312;SDS011;7757;52.626;4.746;2022-07-01T00:25:56;4.53;;;0.95;;
15312;SDS011;7757;52.626;4.746;2022-07-01T00:28:23;3.33;;;0.75;;
15312;SDS011;7757;52.626;4.746;2022-07-01T00:30:50;3.97;;;0.73;;
15312;SDS011;7757;52.626;4.746;2022-07-01T00:33:18;6.75;;;1.10;;
15312;SDS011;7757;52.626;4.746;2022-07-01T00:35:44;2.30;;;0.85;;
15312;SDS011;7757;52.626;4.746;2022-07-01T00:38:11;3.95;;;1.02;;
15312;SDS011;7757;52.626;4.746;2022-07-01T00:40:37;1.98;;;0.63;;
15312;SDS011;7757;52.626;4.746;2022-07-01T00:43:04;5.60;;;0.82;;
15312;SDS011;7757;52.626;4.746;2022-07-01T00:45:32;3.10;;;0.90;;
15312;SDS011;7757;52.626;4.746;2022-07-01T00:47:59;3.67;;;0.85;;
15312;SDS011;7757;52.626;4.746;2022-07-01T00:50:26;4.82;;;1.00;;
15312;SDS011;7757;52.626;4.746;2022-07-01T00:52:52;2.08;;;0.65;;
15312;SDS011;7757;52.626;4.746;2022-07-01T00:55:19;3.03;;;1.02;;
15312;SDS011;7757;52.626;4.746;2022-07-01T00:57:45;2.38;;;0.85;;
15312;SDS011;7757;52.626;4.746;2022-07-01T01:00:12;2.00;;;0.68;;
15312;SDS011;7757;52.626;4.746;2022-07-01T01:02:42;3.58;;;0.90;;
15312;SDS011;7757;52.626;4.746;2022-07-01T01:05:09;5.90;;;0.98;;
15312;SDS011;7757;52.626;4.746;2022-07-01T01:07:35;1.98;;;0.73;;
15312;SDS011;7757;52.626;4.746;2022-07-01T01:10:02;4.43;;;0.70;;
15312;SDS011;7757;52.626;4.746;2022-07-01T01:12:29;3.30;;;0.85;;
15312;SDS011;7757;52.626;4.746;2022-07-01T01:14:56;6.25;;;0.95;;
15312;SDS011;7757;52.626;4.746;2022-07-01T01:17:23;3.03;;;1.00;;
15312;SDS011;7757;52.626;4.746;2022-07-01T01:19:51;2.97;;;0.90;;
15312;SDS011;7757;52.626;4.746;2022-07-01T01:22:20;2.88;;;0.80;;
15312;SDS011;7757;52.626;4.746;2022-07-01T01:24:46;2.80;;;0.85;;
15312;SDS011;7757;52.626;4.746;2022-07-01T01:27:13;2.55;;;0.80;;
15312;SDS011;7757;52.626;4.746;2022-07-01T01:29:41;5.90;;;1.10;;
15312;SDS011;7757;52.626;4.746;2022-07-01T01:32:08;3.40;;;1.02;;
15312;SDS011;7757;52.626;4.746;2022-07-01T01:34:35;3.65;;;0.80;;
15312;SDS011;7757;52.626;4.746;2022-07-01T01:37:03;4.82;;;0.90;;
15312;SDS011;7757;52.626;4.746;2022-07-01T01:39:32;5.22;;;1.20;;
15312;SDS011;7757;52.626;4.746;2022-07-01T01:41:58;3.15;;;0.80;;
15312;SDS011;7757;52.626;4.746;2022-07-01T01:44:25;6.00;;;1.00;;
15312;SDS011;7757;52.626;4.746;2022-07-01T01:46:52;4.85;;;1.00;;
15312;SDS011;7757;52.626;4.746;2022-07-01T01:49:18;6.40;;;1.10;;
15312;SDS011;7757;52.626;4.746;2022-07-01T01:51:45;1.83;;;0.70;;
15312;SDS011;7757;52.626;4.746;2022-07-01T01:54:11;2.35;;;0.80;;
15312;SDS011;7757;52.626;4.746;2022-07-01T01:56:39;5.05;;;1.00;;
15312;SDS011;7757;52.626;4.746;2022-07-01T01:59:05;6.50;;;0.90;;
15312;SDS011;7757;52.626;4.746;2022-07-01T02:01:32;6.00;;;1.30;;
15312;SDS011;7757;52.626;4.746;2022-07-01T02:03:59;5.55;;;0.90;;
15312;SDS011;7757;52.626;4.746;2022-07-01T02:06:26;5.20;;;1.10;;
15312;SDS011;7757;52.626;4.746;2022-07-01T02:08:52;5.95;;;1.05;;
15312;SDS011;7757;52.626;4.746;2022-07-01T02:11:19;5.60;;;0.95;;
15312;SDS011;7757;52.626;4.746;2022-07-01T02:13:47;4.95;;;1.00;;
15312;SDS011;7757;52.626;4.746;2022-07-01T02:16:13;3.55;;;1.05;;
15312;SDS011;7757;52.626;4.746;2022-07-01T02:18:40;4.85;;;1.15;;
15312;SDS011;7757;52.626;4.746;2022-07-01T02:21:06;3.53;;;1.20;;
15312;SDS011;7757;52.626;4.746;2022-07-01T02:23:32;4.65;;;1.00;;
15312;SDS011;7757;52.626;4.746;2022-07-01T02:25:59;6.68;;;1.00;;
15312;SDS011;7757;52.626;4.746;2022-07-01T02:28:25;5.10;;;1.08;;
15312;SDS011;7757;52.626;4.746;2022-07-01T02:30:53;5.32;;;1.08;;
15312;SDS011;7757;52.626;4.746;2022-07-01T02:33:20;4.63;;;1.00;;
15312;SDS011;7757;52.626;4.746;2022-07-01T02:35:46;4.35;;;1.23;;
15312;SDS011;7757;52.626;4.746;2022-07-01T02:38:13;5.50;;;1.10;;
15312;SDS011;7757;52.626;4.746;2022-07-01T02:40:39;11.35;;;2.47;;
15312;SDS011;7757;52.626;4.746;2022-07-01T02:43:06;3.20;;;1.10;;
15312;SDS011;7757;52.626;4.746;2022-07-01T02:45:33;3.97;;;1.20;;
15312;SDS011;7757;52.626;4.746;2022-07-01T02:48:00;5.85;;;1.10;;
15312;SDS011;7757;52.626;4.746;2022-07-01T02:50:27;6.50;;;1.33;;
15312;SDS011;7757;52.626;4.746;2022-07-01T02:52:54;5.85;;;1.48;;
15312;SDS011;7757;52.626;4.746;2022-07-01T02:55:21;3.97;;;1.25;;
15312;SDS011;7757;52.626;4.746;2022-07-01T02:57:47;4.30;;;1.00;;
15312;SDS011;7757;52.626;4.746;2022-07-01T03:00:14;5.22;;;1.30;;
15312;SDS011;7757;52.626;4.746;2022-07-01T03:02:41;4.75;;;1.40;;
15312;SDS011;7757;52.626;4.746;2022-07-01T03:05:09;4.80;;;1.40;;
15312;SDS011;7757;52.626;4.746;2022-07-01T03:07:36;4.28;;;1.08;;
15312;SDS011;7757;52.626;4.746;2022-07-01T03:10:03;6.45;;;1.50;;
15312;SDS011;7757;52.626;4.746;2022-07-01T03:12:31;4.63;;;1.30;;
15312;SDS011;7757;52.626;4.746;2022-07-01T03:15:00;5.50;;;1.30;;
15312;SDS011;7757;52.626;4.746;2022-07-01T03:17:29;5.90;;;1.35;;
15312;SDS011;7757;52.626;4.746;2022-07-01T03:19:57;6.53;;;1.40;;
15312;SDS011;7757;52.626;4.746;2022-07-01T03:22:26;5.85;;;1.40;;
15312;SDS011;7757;52.626;4.746;2022-07-01T03:24:54;5.07;;;1.25;;
15312;SDS011;7757;52.626;4.746;2022-07-01T03:27:21;6.35;;;1.52;;
15312;SDS011;7757;52.626;4.746;2022-07-01T03:29:48;6.15;;;1.48;;
15312;SDS011;7757;52.626;4.746;2022-07-01T03:32:15;7.05;;;1.40;;
15312;SDS011;7757;52.626;4.746;2022-07-01T03:34:42;6.68;;;1.50;;
15312;SDS011;7757;52.626;4.746;2022-07-01T03:37:11;7.43;;;1.70;;
15312;SDS011;7757;52.626;4.746;2022-07-01T03:39:41;9.73;;;1.63;;
15312;SDS011;7757;52.626;4.746;2022-07-01T03:42:08;7.22;;;1.88;;
15312;SDS011;7757;52.626;4.746;2022-07-01T03:44:35;9.25;;;1.77;;
15312;SDS011;7757;52.626;4.746;2022-07-01T03:47:03;7.47;;;1.98;;
15312;SDS011;7757;52.626;4.746;2022-07-01T03:49:31;6.65;;;1.73;;
15312;SDS011;7757;52.626;4.746;2022-07-01T03:51:58;5.65;;;1.75;;
15312;SDS011;7757;52.626;4.746;2022-07-01T03:54:24;9.15;;;2.00;;
15312;SDS011;7757;52.626;4.746;2022-07-01T03:56:59;8.68;;;1.90;;
15312;SDS011;7757;52.626;4.746;2022-07-01T03:59:27;8.15;;;2.22;;
15312;SDS011;7757;52.626;4.746;2022-07-01T04:01:54;9.57;;;2.20;;
15312;SDS011;7757;52.626;4.746;2022-07-01T04:04:21;6.35;;;1.70;;
15312;SDS011;7757;52.626;4.746;2022-07-01T04:06:48;9.48;;;2.28;;
15312;SDS011;7757;52.626;4.746;2022-07-01T04:09:15;8.50;;;2.10;;
15312;SDS011;7757;52.626;4.746;2022-07-01T04:11:43;8.05;;;2.10;;
15312;SDS011;7757;52.626;4.746;2022-07-01T04:14:12;7.40;;;2.03;;
15312;SDS011;7757;52.626;4.746;2022-07-01T04:16:39;8.77;;;2.13;;
15312;SDS011;7757;52.626;4.746;2022-07-01T04:19:06;7.95;;;1.95;;
15312;SDS011;7757;52.626;4.746;2022-07-01T04:21:34;7.13;;;2.00;;
15312;SDS011;7757;52.626;4.746;2022-07-01T04:24:18;8.73;;;1.90;;
15312;SDS011;7757;52.626;4.746;2022-07-01T04:26:44;8.88;;;2.00;;
15312;SDS011;7757;52.626;4.746;2022-07-01T04:29:12;7.18;;;1.75;;
15312;SDS011;7757;52.626;4.746;2022-07-01T04:31:39;10.43;;;2.00;;
15312;SDS011;7757;52.626;4.746;2022-07-01T04:34:06;8.02;;;1.88;;
15312;SDS011;7757;52.626;4.746;2022-07-01T04:36:34;7.88;;;2.13;;
15312;SDS011;7757;52.626;4.746;2022-07-01T04:39:01;7.80;;;2.13;;
15312;SDS011;7757;52.626;4.746;2022-07-01T04:41:27;8.60;;;2.03;;
15312;SDS011;7757;52.626;4.746;2022-07-01T04:44:13;7.85;;;1.92;;
15312;SDS011;7757;52.626;4.746;2022-07-01T04:46:39;6.95;;;1.83;;
15312;SDS011;7757;52.626;4.746;2022-07-01T04:49:06;9.73;;;2.20;;
15312;SDS011;7757;52.626;4.746;2022-07-01T04:51:33;8.43;;;2.20;;
15312;SDS011;7757;52.626;4.746;2022-07-01T04:54:00;6.90;;;1.70;;
15312;SDS011;7757;52.626;4.746;2022-07-01T04:56:26;7.00;;;1.80;;
15312;SDS011;7757;52.626;4.746;2022-07-01T04:58:53;5.95;;;1.80;;
15312;SDS011;7757;52.626;4.746;2022-07-01T05:01:21;9.90;;;1.88;;
15312;SDS011;7757;52.626;4.746;2022-07-01T05:03:48;11.10;;;2.10;;
15312;SDS011;7757;52.626;4.746;2022-07-01T05:06:15;9.00;;;1.70;;
15312;SDS011;7757;52.626;4.746;2022-07-01T05:08:41;7.47;;;1.70;;
15312;SDS011;7757;52.626;4.746;2022-07-01T05:11:08;9.65;;;1.80;;
15312;SDS011;7757;52.626;4.746;2022-07-01T05:13:34;8.93;;;1.67;;
15312;SDS011;7757;52.626;4.746;2022-07-01T05:16:02;8.95;;;1.58;;
15312;SDS011;7757;52.626;4.746;2022-07-01T05:18:30;8.98;;;1.55;;
15312;SDS011;7757;52.626;4.746;2022-07-01T05:21:14;14.65;;;1.70;;
15312;SDS011;7757;52.626;4.746;2022-07-01T05:26:25;8.32;;;1.60;;
15312;SDS011;7757;52.626;4.746;2022-07-01T05:28:51;7.38;;;1.50;;
15312;SDS011;7757;52.626;4.746;2022-07-01T05:31:18;11.02;;;1.92;;
15312;SDS011;7757;52.626;4.746;2022-07-01T05:33:46;9.57;;;1.38;;
15312;SDS011;7757;52.626;4.746;2022-07-01T05:36:13;6.10;;;1.17;;
15312;SDS011;7757;52.626;4.746;2022-07-01T05:38:40;8.00;;;1.30;;
15312;SDS011;7757;52.626;4.746;2022-07-01T05:41:07;9.55;;;1.40;;
15312;SDS011;7757;52.626;4.746;2022-07-01T05:43:34;8.48;;;1.70;;
15312;SDS011;7757;52.626;4.746;2022-07-01T05:46:00;5.90;;;1.20;;
15312;SDS011;7757;52.626;4.746;2022-07-01T05:48:27;6.75;;;1.50;;
15312;SDS011;7757;52.626;4.746;2022-07-01T05:50:55;6.03;;;1.23;;
15312;SDS011;7757;52.626;4.746;2022-07-01T05:53:22;9.23;;;1.50;;
15312;SDS011;7757;52.626;4.746;2022-07-01T05:55:48;5.28;;;1.35;;
15312;SDS011;7757;52.626;4.746;2022-07-01T05:58:15;8.13;;;1.40;;
15312;SDS011;7757;52.626;4.746;2022-07-01T06:00:42;9.43;;;1.45;;
15312;SDS011;7757;52.626;4.746;2022-07-01T06:03:09;7.22;;;1.40;;
15312;SDS011;7757;52.626;4.746;2022-07-01T06:05:35;7.97;;;1.60;;
15312;SDS011;7757;52.626;4.746;2022-07-01T06:08:03;5.75;;;1.25;;
15312;SDS011;7757;52.626;4.746;2022-07-01T06:10:30;8.65;;;1.38;;
15312;SDS011;7757;52.626;4.746;2022-07-01T06:12:57;8.00;;;1.50;;
15312;SDS011;7757;52.626;4.746;2022-07-01T06:15:24;6.65;;;1.17;;
15312;SDS011;7757;52.626;4.746;2022-07-01T06:17:51;8.60;;;1.58;;
15312;SDS011;7757;52.626;4.746;2022-07-01T06:20:19;9.13;;;1.60;;
15312;SDS011;7757;52.626;4.746;2022-07-01T06:22:45;9.65;;;1.40;;
15312;SDS011;7757;52.626;4.746;2022-07-01T06:25:13;7.55;;;1.50;;
15312;SDS011;7757;52.626;4.746;2022-07-01T06:27:40;16.77;;;2.05;;
15312;SDS011;7757;52.626;4.746;2022-07-01T06:30:08;15.38;;;2.38;;
15312;SDS011;7757;52.626;4.746;2022-07-01T06:32:36;11.38;;;2.00;;
15312;SDS011;7757;52.626;4.746;2022-07-01T06:35:03;15.48;;;2.92;;
15312;SDS011;7757;52.626;4.746;2022-07-01T06:37:30;20.55;;;2.60;;
15312;SDS011;7757;52.626;4.746;2022-07-01T06:39:59;16.10;;;3.00;;
15312;SDS011;7757;52.626;4.746;2022-07-01T06:42:26;12.57;;;2.30;;
15312;SDS011;7757;52.626;4.746;2022-07-01T06:44:53;12.85;;;2.30;;
15312;SDS011;7757;52.626;4.746;2022-07-01T06:47:19;12.05;;;1.80;;
15312;SDS011;7757;52.626;4.746;2022-07-01T06:49:46;13.45;;;2.33;;
15312;SDS011;7757;52.626;4.746;2022-07-01T06:52:13;9.85;;;1.55;;
15312;SDS011;7757;52.626;4.746;2022-07-01T06:54:39;13.23;;;2.00;;
15312;SDS011;7757;52.626;4.746;2022-07-01T06:57:06;9.75;;;1.75;;
15312;SDS011;7757;52.626;4.746;2022-07-01T06:59:34;10.30;;;1.80;;
15312;SDS011;7757;52.626;4.746;2022-07-01T07:02:00;13.38;;;1.88;;
15312;SDS011;7757;52.626;4.746;2022-07-01T07:04:27;8.75;;;1.60;;
15312;SDS011;7757;52.626;4.746;2022-07-01T07:06:53;9.68;;;1.60;;
15312;SDS011;7757;52.626;4.746;2022-07-01T07:09:20;6.82;;;1.40;;
15312;SDS011;7757;52.626;4.746;2022-07-01T07:11:46;9.52;;;1.73;;
15312;SDS011;7757;52.626;4.746;2022-07-01T07:14:13;9.65;;;1.63;;
15312;SDS011;7757;52.626;4.746;2022-07-01T07:16:42;6.70;;;1.40;;
15312;SDS011;7757;52.626;4.746;2022-07-01T07:19:08;6.50;;;1.25;;
15312;SDS011;7757;52.626;4.746;2022-07-01T07:21:35;6.25;;;1.30;;
15312;SDS011;7757;52.626;4.746;2022-07-01T07:24:02;9.23;;;1.38;;
15312;SDS011;7757;52.626;4.746;2022-07-01T07:26:28;4.75;;;1.00;;
15312;SDS011;7757;52.626;4.746;2022-07-01T07:28:55;7.55;;;1.30;;
15312;SDS011;7757;52.626;4.746;2022-07-01T07:31:21;9.25;;;1.45;;
15312;SDS011;7757;52.626;4.746;2022-07-01T07:33:49;5.60;;;1.40;;
15312;SDS011;7757;52.626;4.746;2022-07-01T07:36:16;5.90;;;1.35;;
15312;SDS011;7757;52.626;4.746;2022-07-01T07:38:42;7.68;;;1.30;;
15312;SDS011;7757;52.626;4.746;2022-07-01T07:41:09;6.50;;;1.40;;
15312;SDS011;7757;52.626;4.746;2022-07-01T07:43:35;6.97;;;1.40;;
15312;SDS011;7757;52.626;4.746;2022-07-01T07:46:02;4.90;;;1.10;;
15312;SDS011;7757;52.626;4.746;2022-07-01T07:48:29;3.63;;;1.10;;
15312;SDS011;7757;52.626;4.746;2022-07-01T07:50:57;7.18;;;1.23;;
15312;SDS011;7757;52.626;4.746;2022-07-01T07:53:24;10.10;;;1.55;;
15312;SDS011;7757;52.626;4.746;2022-07-01T07:55:50;6.07;;;1.20;;
15312;SDS011;7757;52.626;4.746;2022-07-01T07:58:17;7.43;;;1.30;;
15312;SDS011;7757;52.626;4.746;2022-07-01T08:00:43;8.18;;;1.30;;
15312;SDS011;7757;52.626;4.746;2022-07-01T08:03:10;3.15;;;1.02;;
15312;SDS011;7757;52.626;4.746;2022-07-01T08:05:36;4.18;;;1.10;;
15312;SDS011;7757;52.626;4.746;2022-07-01T08:08:04;6.70;;;1.23;;
15312;SDS011;7757;52.626;4.746;2022-07-01T08:10:31;6.13;;;1.30;;
15312;SDS011;7757;52.626;4.746;2022-07-01T08:12:58;4.15;;;1.30;;
15312;SDS011;7757;52.626;4.746;2022-07-01T08:15:28;5.50;;;1.45;;
15312;SDS011;7757;52.626;4.746;2022-07-01T08:17:56;8.25;;;1.35;;
15312;SDS011;7757;52.626;4.746;2022-07-01T08:20:22;7.93;;;1.40;;
15312;SDS011;7757;52.626;4.746;2022-07-01T08:22:49;7.70;;;1.40;;
15312;SDS011;7757;52.626;4.746;2022-07-01T08:25:17;7.20;;;1.30;;
15312;SDS011;7757;52.626;4.746;2022-07-01T08:27:43;7.47;;;1.35;;
15312;SDS011;7757;52.626;4.746;2022-07-01T08:30:10;7.43;;;1.27;;
15312;SDS011;7757;52.626;4.746;2022-07-01T08:32:37;6.32;;;1.23;;
15312;SDS011;7757;52.626;4.746;2022-07-01T08:35:04;8.27;;;1.52;;
15312;SDS011;7757;52.626;4.746;2022-07-01T08:37:31;5.97;;;1.20;;
15312;SDS011;7757;52.626;4.746;2022-07-01T08:39:57;6.70;;;1.30;;
15312;SDS011;7757;52.626;4.746;2022-07-01T08:42:26;3.95;;;1.17;;
15312;SDS011;7757;52.626;4.746;2022-07-01T08:44:53;5.35;;;1.20;;
15312;SDS011;7757;52.626;4.746;2022-07-01T08:47:19;6.82;;;1.30;;
15312;SDS011;7757;52.626;4.746;2022-07-01T08:49:46;7.35;;;1.40;;
15312;SDS011;7757;52.626;4.746;2022-07-01T08:52:12;5.43;;;1.10;;
15312;SDS011;7757;52.626;4.746;2022-07-01T08:54:39;6.47;;;1.05;;
15312;SDS011;7757;52.626;4.746;2022-07-01T08:57:06;6.72;;;1.33;;
15312;SDS011;7757;52.626;4.746;2022-07-01T08:59:34;6.65;;;1.17;;
15312;SDS011;7757;52.626;4.746;2022-07-01T09:02:02;5.68;;;1.13;;
15312;SDS011;7757;52.626;4.746;2022-07-01T09:04:30;4.25;;;1.23;;
15312;SDS011;7757;52.626;4.746;2022-07-01T09:07:02;4.40;;;1.10;;
15312;SDS011;7757;52.626;4.746;2022-07-01T09:09:33;8.13;;;1.30;;
15312;SDS011;7757;52.626;4.746;2022-07-01T09:12:01;6.10;;;1.17;;
15312;SDS011;7757;52.626;4.746;2022-07-01T09:14:28;5.68;;;1.10;;
15312;SDS011;7757;52.626;4.746;2022-07-01T09:16:57;5.68;;;1.00;;
15312;SDS011;7757;52.626;4.746;2022-07-01T09:19:26;5.70;;;1.10;;
15312;SDS011;7757;52.626;4.746;2022-07-01T09:21:54;5.13;;;1.10;;
15312;SDS011;7757;52.626;4.746;2022-07-01T09:24:23;6.80;;;1.27;;
15312;SDS011;7757;52.626;4.746;2022-07-01T09:26:53;7.60;;;1.10;;
15312;SDS011;7757;52.626;4.746;2022-07-01T09:29:28;7.60;;;1.23;;
15312;SDS011;7757;52.626;4.746;2022-07-01T09:31:58;6.43;;;1.20;;
15312;SDS011;7757;52.626;4.746;2022-07-01T09:34:24;6.35;;;1.20;;
15312;SDS011;7757;52.626;4.746;2022-07-01T09:36:52;7.40;;;1.30;;
15312;SDS011;7757;52.626;4.746;2022-07-01T09:39:20;7.65;;;1.30;;
15312;SDS011;7757;52.626;4.746;2022-07-01T09:41:46;9.02;;;1.42;;
15312;SDS011;7757;52.626;4.746;2022-07-01T09:44:13;6.32;;;1.30;;
15312;SDS011;7757;52.626;4.746;2022-07-01T09:46:50;9.00;;;1.45;;
15312;SDS011;7757;52.626;4.746;2022-07-01T09:49:19;7.28;;;1.30;;
15312;SDS011;7757;52.626;4.746;2022-07-01T09:51:46;9.38;;;1.30;;
15312;SDS011;7757;52.626;4.746;2022-07-01T09:54:14;5.40;;;1.10;;
15312;SDS011;7757;52.626;4.746;2022-07-01T09:56:41;7.90;;;1.40;;
15312;SDS011;7757;52.626;4.746;2022-07-01T09:59:07;6.45;;;1.15;;
15312;SDS011;7757;52.626;4.746;2022-07-01T10:01:34;5.70;;;1.20;;
15312;SDS011;7757;52.626;4.746;2022-07-01T10:04:02;11.13;;;1.55;;
15312;SDS011;7757;52.626;4.746;2022-07-01T10:09:44;8.70;;;1.48;;
15312;SDS011;7757;52.626;4.746;2022-07-01T10:12:28;13.05;;;1.60;;
15312;SDS011;7757;52.626;4.746;2022-07-01T10:14:59;7.63;;;1.52;;
15312;SDS011;7757;52.626;4.746;2022-07-01T10:17:27;12.40;;;1.50;;
15312;SDS011;7757;52.626;4.746;2022-07-01T10:19:56;12.65;;;1.65;;
15312;SDS011;7757;52.626;4.746;2022-07-01T10:22:27;13.55;;;1.80;;
15312;SDS011;7757;52.626;4.746;2022-07-01T10:24:55;16.88;;;2.17;;
15312;SDS011;7757;52.626;4.746;2022-07-01T10:27:22;12.60;;;1.80;;
15312;SDS011;7757;52.626;4.746;2022-07-01T10:30:12;11.00;;;1.40;;
15312;SDS011;7757;52.626;4.746;2022-07-01T10:32:46;8.55;;;1.50;;
15312;SDS011;7757;52.626;4.746;2022-07-01T10:35:13;9.23;;;1.73;;
15312;SDS011;7757;52.626;4.746;2022-07-01T10:40:39;8.15;;;1.60;;
15312;SDS011;7757;52.626;4.746;2022-07-01T10:43:10;11.07;;;1.63;;
15312;SDS011;7757;52.626;4.746;2022-07-01T10:45:43;8.98;;;1.40;;
15312;SDS011;7757;52.626;4.746;2022-07-01T10:48:19;11.52;;;1.65;;
15312;SDS011;7757;52.626;4.746;2022-07-01T10:50:47;9.98;;;2.20;;
15312;SDS011;7757;52.626;4.746;2022-07-01T10:53:16;10.80;;;1.60;;
15312;SDS011;7757;52.626;4.746;2022-07-01T10:55:44;9.10;;;1.75;;
15312;SDS011;7757;52.626;4.746;2022-07-01T10:58:12;11.43;;;1.75;;
15312;SDS011;7757;52.626;4.746;2022-07-01T11:00:42;11.02;;;1.52;;
15312;SDS011;7757;52.626;4.746;2022-07-01T11:03:11;9.43;;;1.80;;
15312;SDS011;7757;52.626;4.746;2022-07-01T11:05:39;10.23;;;1.75;;
15312;SDS011;7757;52.626;4.746;2022-07-01T11:08:07;10.90;;;1.70;;
15312;SDS011;7757;52.626;4.746;2022-07-01T11:10:36;9.13;;;1.50;;
15312;SDS011;7757;52.626;4.746;2022-07-01T11:13:02;9.27;;;1.60;;
15312;SDS011;7757;52.626;4.746;2022-07-01T11:15:29;11.38;;;1.85;;
15312;SDS011;7757;52.626;4.746;2022-07-01T11:17:58;7.70;;;1.60;;
15312;SDS011;7757;52.626;4.746;2022-07-01T11:20:26;10.93;;;1.70;;
15312;SDS011;7757;52.626;4.746;2022-07-01T11:22:55;9.35;;;1.80;;
15312;SDS011;7757;52.626;4.746;2022-07-01T11:25:22;13.13;;;1.60;;
15312;SDS011;7757;52.626;4.746;2022-07-01T11:27:50;9.90;;;1.77;;
15312;SDS011;7757;52.626;4.746;2022-07-01T11:30:18;8.95;;;1.35;;
15312;SDS011;7757;52.626;4.746;2022-07-01T11:32:46;8.63;;;1.35;;
15312;SDS011;7757;52.626;4.746;2022-07-01T11:35:15;10.48;;;1.60;;
15312;SDS011;7757;52.626;4.746;2022-07-01T11:38:06;10.38;;;1.60;;
15312;SDS011;7757;52.626;4.746;2022-07-01T11:40:52;8.32;;;1.52;;
15312;SDS011;7757;52.626;4.746;2022-07-01T11:43:22;9.48;;;1.38;;
15312;SDS011;7757;52.626;4.746;2022-07-01T11:45:50;8.32;;;1.50;;
15312;SDS011;7757;52.626;4.746;2022-07-01T11:48:30;8.63;;;1.83;;
15312;SDS011;7757;52.626;4.746;2022-07-01T11:51:05;7.07;;;1.52;;
15312;SDS011;7757;52.626;4.746;2022-07-01T11:53:34;8.50;;;1.50;;
15312;SDS011;7757;52.626;4.746;2022-07-01T11:56:01;9.55;;;1.70;;
15312;SDS011;7757;52.626;4.746;2022-07-01T11:58:45;10.05;;;1.58;;
15312;SDS011;7757;52.626;4.746;2022-07-01T12:01:23;9.10;;;1.50;;
15312;SDS011;7757;52.626;4.746;2022-07-01T12:03:52;8.80;;;1.83;;
15312;SDS011;7757;52.626;4.746;2022-07-01T12:06:19;12.10;;;1.65;;
15312;SDS011;7757;52.626;4.746;2022-07-01T12:08:49;10.32;;;1.70;;
15312;SDS011;7757;52.626;4.746;2022-07-01T12:11:17;10.75;;;1.58;;
15312;SDS011;7757;52.626;4.746;2022-07-01T12:13:45;9.75;;;1.52;;
15312;SDS011;7757;52.626;4.746;2022-07-01T12:16:13;8.18;;;1.30;;
15312;SDS011;7757;52.626;4.746;2022-07-01T12:18:50;8.30;;;1.60;;
15312;SDS011;7757;52.626;4.746;2022-07-01T12:21:17;10.45;;;1.60;;
15312;SDS011;7757;52.626;4.746;2022-07-01T12:26:28;12.27;;;1.83;;
15312;SDS011;7757;52.626;4.746;2022-07-01T12:28:56;13.02;;;1.67;;
15312;SDS011;7757;52.626;4.746;2022-07-01T12:31:23;6.63;;;1.48;;
15312;SDS011;7757;52.626;4.746;2022-07-01T12:33:50;7.38;;;1.60;;
15312;SDS011;7757;52.626;4.746;2022-07-01T12:36:17;9.90;;;1.70;;
15312;SDS011;7757;52.626;4.746;2022-07-01T12:38:44;11.18;;;1.70;;
15312;SDS011;7757;52.626;4.746;2022-07-01T12:44:00;8.52;;;1.48;;
15312;SDS011;7757;52.626;4.746;2022-07-01T12:46:27;9.65;;;1.88;;
15312;SDS011;7757;52.626;4.746;2022-07-01T12:48:55;8.00;;;1.40;;
15312;SDS011;7757;52.626;4.746;2022-07-01T12:51:27;8.77;;;1.50;;
15312;SDS011;7757;52.626;4.746;2022-07-01T12:53:55;6.90;;;1.48;;
15312;SDS011;7757;52.626;4.746;2022-07-01T12:56:22;7.30;;;1.13;;
15312;SDS011;7757;52.626;4.746;2022-07-01T12:58:49;9.93;;;1.60;;
15312;SDS011;7757;52.626;4.746;2022-07-01T13:01:18;9.65;;;1.48;;
15312;SDS011;7757;52.626;4.746;2022-07-01T13:03:45;12.23;;;1.80;;
15312;SDS011;7757;52.626;4.746;2022-07-01T13:06:12;11.00;;;1.60;;
15312;SDS011;7757;52.626;4.746;2022-07-01T13:08:38;10.20;;;1.50;;
15312;SDS011;7757;52.626;4.746;2022-07-01T13:11:05;8.25;;;1.45;;
15312;SDS011;7757;52.626;4.746;2022-07-01T13:13:32;9.00;;;1.50;;
15312;SDS011;7757;52.626;4.746;2022-07-01T13:15:58;11.52;;;1.77;;
15312;SDS011;7757;52.626;4.746;2022-07-01T13:18:26;8.80;;;1.42;;
15312;SDS011;7757;52.626;4.746;2022-07-01T13:20:53;6.32;;;1.45;;
15312;SDS011;7757;52.626;4.746;2022-07-01T13:23:19;7.05;;;1.38;;
15312;SDS011;7757;52.626;4.746;2022-07-01T13:25:46;8.80;;;1.23;;
15312;SDS011;7757;52.626;4.746;2022-07-01T13:28:12;7.90;;;1.30;;
15312;SDS011;7757;52.626;4.746;2022-07-01T13:30:39;8.80;;;1.45;;
15312;SDS011;7757;52.626;4.746;2022-07-01T13:33:05;10.45;;;1.50;;
15312;SDS011;7757;52.626;4.746;2022-07-01T13:35:33;8.95;;;1.40;;
15312;SDS011;7757;52.626;4.746;2022-07-01T13:38:00;10.07;;;1.38;;
15312;SDS011;7757;52.626;4.746;2022-07-01T13:40:26;14.13;;;1.67;;
15312;SDS011;7757;52.626;4.746;2022-07-01T13:42:53;10.40;;;1.77;;
15312;SDS011;7757;52.626;4.746;2022-07-01T13:45:19;8.10;;;1.60;;
15312;SDS011;7757;52.626;4.746;2022-07-01T13:47:46;7.00;;;1.27;;
15312;SDS011;7757;52.626;4.746;2022-07-01T13:50:12;7.95;;;1.30;;
15312;SDS011;7757;52.626;4.746;2022-07-01T13:52:45;6.53;;;1.35;;
15312;SDS011;7757;52.626;4.746;2022-07-01T13:55:11;11.65;;;1.70;;
15312;SDS011;7757;52.626;4.746;2022-07-01T13:57:38;10.48;;;1.55;;
15312;SDS011;7757;52.626;4.746;2022-07-01T14:00:05;9.10;;;1.58;;
15312;SDS011;7757;52.626;4.746;2022-07-01T14:02:34;5.80;;;1.17;;
15312;SDS011;7757;52.626;4.746;2022-07-01T14:05:00;7.70;;;1.23;;
15312;SDS011;7757;52.626;4.746;2022-07-01T14:07:27;9.32;;;1.65;;
15312;SDS011;7757;52.626;4.746;2022-07-01T14:09:55;10.07;;;1.42;;
15312;SDS011;7757;52.626;4.746;2022-07-01T14:12:21;9.57;;;1.75;;
15312;SDS011;7757;52.626;4.746;2022-07-01T14:14:48;12.00;;;1.50;;
15312;SDS011;7757;52.626;4.746;2022-07-01T14:17:14;8.93;;;1.60;;
15312;SDS011;7757;52.626;4.746;2022-07-01T14:19:41;7.35;;;1.50;;
15312;SDS011;7757;52.626;4.746;2022-07-01T14:22:07;9.40;;;1.70;;
15312;SDS011;7757;52.626;4.746;2022-07-01T14:24:34;8.63;;;1.85;;
15312;SDS011;7757;52.626;4.746;2022-07-01T14:27:02;7.63;;;1.52;;
15312;SDS011;7757;52.626;4.746;2022-07-01T14:29:28;9.75;;;1.60;;
15312;SDS011;7757;52.626;4.746;2022-07-01T14:31:55;7.50;;;1.50;;
15312;SDS011;7757;52.626;4.746;2022-07-01T14:34:21;8.40;;;1.40;;
15312;SDS011;7757;52.626;4.746;2022-07-01T14:36:49;10.98;;;1.60;;
15312;SDS011;7757;52.626;4.746;2022-07-01T14:39:16;6.75;;;1.30;;
15312;SDS011;7757;52.626;4.746;2022-07-01T14:41:42;6.55;;;1.45;;
15312;SDS011;7757;52.626;4.746;2022-07-01T14:44:15;10.20;;;1.58;;
15312;SDS011;7757;52.626;4.746;2022-07-01T14:46:42;8.43;;;1.70;;
15312;SDS011;7757;52.626;4.746;2022-07-01T14:49:08;5.53;;;1.25;;
15312;SDS011;7757;52.626;4.746;2022-07-01T14:51:35;7.88;;;1.60;;
15312;SDS011;7757;52.626;4.746;2022-07-01T14:54:01;10.57;;;1.65;;
15312;SDS011;7757;52.626;4.746;2022-07-01T14:56:28;10.00;;;2.05;;
15312;SDS011;7757;52.626;4.746;2022-07-01T14:58:55;7.55;;;1.33;;
15312;SDS011;7757;52.626;4.746;2022-07-01T15:01:23;10.18;;;1.40;;
15312;SDS011;7757;52.626;4.746;2022-07-01T15:03:50;6.15;;;1.58;;
15312;SDS011;7757;52.626;4.746;2022-07-01T15:06:16;7.85;;;1.45;;
15312;SDS011;7757;52.626;4.746;2022-07-01T15:08:43;6.68;;;1.40;;
15312;SDS011;7757;52.626;4.746;2022-07-01T15:11:09;5.90;;;1.20;;
15312;SDS011;7757;52.626;4.746;2022-07-01T15:13:36;9.25;;;1.73;;
15312;SDS011;7757;52.626;4.746;2022-07-01T15:16:03;6.60;;;1.10;;